Terminal Aerodrome Forecast
Issued by NWS

Home | Current Version | Previous Version | Text Only | Print | Product List | Glossary On
Versions: 1 2 3 4 5 6 7 8 9 10 11 12 13 14 15 16 17 18 19 20 21 22 23 24 25 26 27 28 29 30 31 32 33 34 35 36 37 38 39 40 41 42 43 44 45 46 47 48 49 50
000
FTUS45 KBOU 292013 AAB
TAFAPA
TAF AMD
KAPA 292013Z 2920/3018 05009KT P6SM VCTS SCT025CB OVC050
      TEMPO 2920/2921 VRB25G40KT 4SM +TSRAGR BKN025CB
     FM292100 09010KT P6SM VCTS BKN050CB BKN100
      TEMPO 2921/2924 VRB20G35KT 4SM +TSRA BKN030CB
     FM300100 31014KT P6SM VCSH SCT050 BKN090
     FM300400 25010KT P6SM SCT060 SCT120
     FM300600 20008KT P6SM FEW120=

USA.gov is the U.S. government's official web portal to all federal, state and local government web resources and services.